Flight Track Log - Related Links

Times and Time Zones

All times are in EDT time to prevent confusion due to time zone crossing. See the N119AF flight status page for this flight to view local times or setup timezone preferences in your user account.

Time Position Orientation Groundspeed Altitude Reporting Facility
EDT Latitude Longitude Course Direction KTS MPH feet Rate Location/Type
Fri 11:24:57 AM 43.0333 -70.7833 144° Southeast 194 223 2,300  Level KA90
Fri 11:25:40 AM 43.0000 -70.7500 144° Southeast 224 258 4,100 3,021 Climbing KA90
Fri 11:27:20 AM 43.0917 -70.7000 22° Northeast 180 207 9,500 2,663 Climbing Boston Center
Fri 11:28:20 AM 43.1661 -70.6781 12° North 221 254 11,200 2,050 Climbing Boston Center
Fri 11:29:20 AM 43.2550 -70.6242 24° Northeast 320 368 13,600 2,450 Climbing Boston Center
Fri 11:30:20 AM 43.3311 -70.5561 33° Northeast 353 406 16,100 2,200 Climbing Boston Center
Fri 11:31:20 AM 43.4214 -70.4733 34° Northeast 365 420 18,000 1,950 Climbing Boston Center
Fri 11:32:20 AM 43.5014 -70.3964 35° Northeast 371 427 20,000 2,050 Climbing Boston Center
Fri 11:33:20 AM 43.5894 -70.3131 34° Northeast 371 427 22,100 2,200 Climbing Boston Center
Fri 11:34:20 AM 43.6756 -70.2356 33° Northeast 371 427 24,400 2,300 Climbing Boston Center
Fri 11:35:20 AM 43.7756 -70.1397 35° Northeast 376 433 26,700 2,000 Climbing Boston Center
Fri 11:36:20 AM 43.8556 -70.0675 33° Northeast 384 442 28,400 1,850 Climbing Boston Center
Fri 11:37:20 AM 43.9517 -69.9772 34° Northeast 384 442 30,400 1,750 Climbing Boston Center
Fri 11:38:20 AM 44.0394 -69.8928 35° Northeast 384 442 31,900 1,600 Climbing Boston Center
Fri 11:39:20 AM 44.1250 -69.8111 34° Northeast 384 442 33,600 1,650 Climbing Boston Center
Fri 11:40:20 AM 44.2128 -69.7289 34° Northeast 384 442 35,200 1,350 Climbing Boston Center
Fri 11:41:20 AM 44.2983 -69.6494 34° Northeast 379 436 36,300 1,250 Climbing Boston Center
Fri 11:42:20 AM 44.3839 -69.5669 35° Northeast 379 436 37,700 1,200 Climbing Boston Center
Fri 11:43:20 AM 44.4692 -69.4844 35° Northeast 374 430 38,700 900 Climbing Boston Center
Fri 11:44:20 AM 44.5547 -69.4014 35° Northeast 368 423 39,500 750 Climbing Boston Center
Fri 11:45:20 AM 44.6400 -69.3183 35° Northeast 368 423 40,200 600 Climbing Boston Center
Fri 11:46:20 AM 44.7272 -69.2375 33° Northeast 368 423 40,700 400 Climbing Boston Center
Fri 11:47:20 AM 44.8144 -69.1478 36° Northeast 373 429 41,000 150 Climbing Boston Center
Fri 11:48:20 AM 44.9036 -69.0639 34° Northeast 373 429 41,000  Level Boston Center
Fri 11:49:20 AM 44.9950 -68.9761 34° Northeast 384 442 41,000  Level Boston Center
Fri 11:50:20 AM 45.0878 -68.8825 35° Northeast 395 455 41,000  Level Boston Center
Fri 11:51:32 AM 45.1811 -68.7942 34° Northeast 400 460 41,000  Level Boston Center
Fri 11:52:32 AM 45.2922 -68.6839 35° Northeast 400 460 41,000  Level Boston Center
Fri 11:53:32 AM 45.3850 -68.5922 35° Northeast 400 460 41,000  Level Boston Center
Fri 11:54:32 AM 45.4775 -68.4972 36° Northeast 406 467 41,000  Level Boston Center
Fri 11:55:32 AM 45.5703 -68.4047 35° Northeast 406 467 41,000  Level Boston Center
Fri 11:56:32 AM 45.6325 -68.3411 36° Northeast 406 467 41,000  Level Boston Center
Fri 11:57:32 AM 45.7492 -68.2167 37° Northeast 406 467 41,000  Level Boston Center
Fri 11:58:44 AM 45.8394 -68.1236 36° Northeast 401 461 41,000  Level Boston Center
Fri 11:59:44 AM 45.9519 -68.0103 35° Northeast 401 461 41,000  Level Boston Center
Fri 12:00:44 PM 46.0381 -67.9258 34° Northeast 409 471 41,000  Level Boston Center
Fri 12:01:44 PM 46.1303 -67.8317 35° Northeast 409 471 41,000  Level Boston Center
Fri 12:02:44 PM 46.2203 -67.7342 37° Northeast 409 471 41,000  Level Boston Center
Fri 12:03:44 PM 46.3125 -67.6453 34° Northeast 403 464 41,000  Level Boston Center
Fri 12:04:44 PM 46.4019 -67.5444 38° Northeast 411 473 41,000  Level Boston Center
Fri 12:05:44 PM 46.4958 -67.4486 35° Northeast 411 473 41,000  Level Boston Center
Fri 12:06:44 PM 46.5875 -67.3500 36° Northeast 411 473 41,000  Level Boston Center
Fri 12:07:44 PM 46.6811 -67.2536 35° Northeast 411 473 41,000  Level Boston Center
Fri 12:08:44 PM 46.7525 -67.1742 37° Northeast 411 473 41,000  Level Boston Center
Fri 12:09:44 PM 46.8719 -67.0506 35° Northeast 411 473 41,000  Level Boston Center
Fri 12:10:57 PM 46.9833 -66.9500 32° Northeast 410 472 41,000  Level Moncton Center
Fri 12:11:57 PM 47.0833 -66.8500 34° Northeast 420 483 41,000  Level Moncton Center
Fri 12:12:57 PM 47.1667 -66.7833 29° Northeast 410 472 41,000  Level Moncton Center
Fri 12:13:57 PM 47.2833 -66.7000 26° Northeast 410 472 41,000  Level Moncton Center
Fri 12:14:57 PM 47.3833 -66.6000 34° Northeast 410 472 41,000  Level Moncton Center
Fri 12:15:57 PM 47.4833 -66.5333 24° Northeast 410 472 41,000  Level Moncton Center
Fri 12:16:57 PM 47.5833 -66.4333 34° Northeast 420 483 41,000  Level Moncton Center
Fri 12:17:57 PM 47.6833 -66.3333 34° Northeast 420 483 41,000  Level Moncton Center
Fri 12:18:57 PM 47.7833 -66.2667 24° Northeast 420 483 41,000  Level Moncton Center
Fri 12:19:57 PM 47.8833 -66.1667 34° Northeast 420 483 41,000  Level Moncton Center
Fri 12:20:57 PM 47.9667 -66.0667 39° Northeast 420 483 41,000  Level Moncton Center
Fri 12:21:57 PM 48.0833 -65.9833 26° Northeast 420 483 41,000  Level Moncton Center
Fri 12:22:57 PM 48.1833 -65.9000 29° Northeast 420 483 41,000  Level Moncton Center
Fri 12:23:57 PM 48.2833 -65.8000 34° Northeast 420 483 41,000  Level Moncton Center
Fri 12:24:57 PM 48.3833 -65.7000 34° Northeast 410 472 41,000  Level Moncton Center
Fri 12:25:57 PM 48.4833 -65.6333 24° Northeast 410 472 41,000  Level Moncton Center
Fri 12:26:57 PM 48.5833 -65.5333 33° Northeast 410 472 41,000  Level Moncton Center
Fri 12:27:57 PM 48.6667 -65.4667 28° Northeast 410 472 41,000  Level Moncton Center
Fri 12:28:57 PM 48.7833 -65.3667 29° Northeast 420 483 41,000  Level Moncton Center
Fri 12:29:57 PM 48.8667 -65.2667 38° Northeast 420 483 41,000  Level Moncton Center
Fri 12:30:57 PM 48.9667 -65.1667 33° Northeast 420 483 41,000  Level Moncton Center
Fri 12:31:57 PM 49.0667 -65.0833 29° Northeast 420 483 41,000  Level Moncton Center
Fri 12:32:57 PM 49.1667 -64.9833 33° Northeast 410 472 41,000  Level Moncton Center
Fri 12:33:57 PM 49.2667 -64.9167 24° Northeast 420 483 41,000  Level Moncton Center
Fri 12:34:57 PM 49.3667 -64.8167 33° Northeast 420 483 41,000  Level Moncton Center
Fri 12:35:57 PM 49.4667 -64.7000 37° Northeast 420 483 41,000  Level Moncton Center
Fri 12:36:57 PM 49.5500 -64.6333 27° Northeast 410 472 41,000  Level Moncton Center
Fri 12:37:22 PM 49.6000 -64.5833 33° Northeast 410 472 41,000  Level Gander Center
Fri 12:38:22 PM 49.7000 -64.4833 33° Northeast 420 483 41,000  Level Gander Center
Fri 12:39:22 PM 49.8167 -64.3833 29° Northeast 410 472 41,000  Level Gander Center
Fri 12:39:57 PM 49.8667 -64.3500 23° Northeast 410 472 41,000  Level Moncton Center
Fri 12:40:57 PM 49.9667 -64.2333 37° Northeast 420 483 41,000  Level Moncton Center
Fri 12:41:57 PM 50.0667 -64.1333 33° Northeast 420 483 41,000  Level Moncton Center
Fri 12:42:22 PM 50.1000 -64.1000 33° Northeast 420 483 41,000  Level Gander Center
Fri 12:43:22 PM 50.2000 -64.0000 33° Northeast 420 483 41,000  Level Gander Center
Fri 12:44:22 PM 50.3000 -63.9000 33° Northeast 420 483 41,000  Level Gander Center
Fri 12:45:22 PM 50.4000 -63.8333 23° Northeast 420 483 41,000  Level Gander Center
Fri 12:46:22 PM 50.5000 -63.7333 32° Northeast 410 472 41,000  Level Gander Center
Fri 12:47:22 PM 50.5833 -63.6333 37° Northeast 420 483 41,000  Level Gander Center
Fri 12:48:22 PM 50.6833 -63.5333 32° Northeast 420 483 41,000  Level Gander Center
Fri 12:49:22 PM 50.7833 -63.4167 36° Northeast 420 483 41,000  Level Gander Center
Fri 12:50:22 PM 50.8833 -63.3167 32° Northeast 420 483 41,000  Level Gander Center
Fri 12:51:22 PM 50.9833 -63.2167 32° Northeast 420 483 41,000  Level Gander Center
Fri 12:52:22 PM 51.0667 -63.1167 37° Northeast 420 483 41,000  Level Gander Center
Fri 12:52:57 PM 51.1333 -63.0667 25° Northeast 410 472 41,000  Level Moncton Center
Fri 12:53:22 PM 51.1833 -63.0167 32° Northeast 420 483 41,000  Level Gander Center
Fri 12:54:22 PM 51.2833 -62.9167 32° Northeast 420 483 41,000  Level Gander Center
Fri 12:54:57 PM 51.3167 -62.8667 43° Northeast 410 472 41,000  Level Moncton Center
Fri 12:55:22 PM 51.3833 -62.8167 25° Northeast 410 472 41,000  Level Gander Center
Fri 12:56:22 PM 51.4667 -62.7333 32° Northeast 420 483 41,000  Level Gander Center
Fri 12:57:22 PM 51.5667 -62.6333 32° Northeast 420 483 41,000  Level Gander Center
Fri 12:58:22 PM 51.6667 -62.5167 36° Northeast 420 483 41,000  Level Gander Center
Fri 12:59:22 PM 51.7500 -62.4167 37° Northeast 420 483 41,000  Level Gander Center
Fri 12:59:57 PM 51.8167 -62.3333 38° Northeast 420 483 41,000  Level Moncton Center
Fri 01:00:22 PM 51.8500 -62.3167 17° North 420 483 41,000  Level Gander Center
Fri 01:01:22 PM 51.9500 -62.2000 36° Northeast 420 483 41,000  Level Gander Center
Fri 01:02:22 PM 52.0500 -62.1000 32° Northeast 420 483 41,000  Level Gander Center
Fri 01:03:22 PM 52.1500 -61.9833 36° Northeast 420 483 41,000  Level Gander Center
Fri 01:04:22 PM 52.2500 -61.8833 31° Northeast 420 483 41,000  Level Gander Center
Fri 01:04:57 PM 52.3000 -61.8000 46° Northeast 420 483 41,000  Level Moncton Center
Fri 01:05:57 PM 52.3833 -61.6833 40° Northeast 430 495 41,000  Level Moncton Center
Fri 01:06:22 PM 52.4500 -61.6167 31° Northeast 430 495 41,000  Level Gander Center
Fri 01:07:22 PM 52.5333 -61.5000 40° Northeast 430 495 41,000  Level Gander Center
Fri 01:08:22 PM 52.6167 -61.4000 36° Northeast 430 495 41,000  Level Gander Center
Fri 01:09:22 PM 52.7167 -61.2500 42° Northeast 430 495 41,000  Level Gander Center
Fri 01:10:22 PM 52.8000 -61.1167 44° Northeast 430 495 41,000  Level Gander Center
Fri 01:11:22 PM 52.9000 -61.0000 35° Northeast 430 495 41,000  Level Gander Center
Fri 01:12:22 PM 52.9833 -60.8667 44° Northeast 430 495 41,000  Level Gander Center
Fri 01:13:22 PM 53.0833 -60.7333 39° Northeast 430 495 41,000  Level Gander Center
Fri 01:14:22 PM 53.1667 -60.6167 40° Northeast 430 495 41,000  Level Gander Center
Fri 01:15:22 PM 53.2667 -60.4667 42° Northeast 430 495 41,000  Level Gander Center
Fri 01:16:57 PM 53.4000 -60.2667 42° Northeast 430 495 41,000  Level Moncton Center
Fri 01:17:22 PM 53.4333 -60.2167 42° Northeast 440 506 41,000  Level Gander Center
Fri 01:18:22 PM 53.5333 -60.0667 42° Northeast 440 506 41,000  Level Gander Center
Fri 01:19:22 PM 53.6167 -59.9333 43° Northeast 440 506 41,000  Level Gander Center
Fri 01:20:22 PM 53.7167 -59.8167 35° Northeast 440 506 41,000  Level Gander Center
Fri 01:21:22 PM 53.8167 -59.6667 42° Northeast 450 518 41,000  Level Gander Center
Fri 01:22:22 PM 53.9000 -59.5167 47° Northeast 450 518 41,000  Level Gander Center
Fri 01:23:22 PM 54.0000 -59.3833 38° Northeast 440 506 41,000  Level Gander Center
Fri 01:24:22 PM 54.1000 -59.2333 41° Northeast 440 506 41,000  Level Gander Center
Fri 01:25:22 PM 54.1833 -59.1167 39° Northeast 450 518 41,000  Level Gander Center
Fri 01:26:22 PM 54.2833 -58.9667 41° Northeast 450 518 41,000  Level Gander Center
Fri 01:27:22 PM 54.3667 -58.8167 46° Northeast 450 518 41,000  Level Gander Center
Fri 01:28:22 PM 54.4667 -58.6667 41° Northeast 450 518 41,000  Level Gander Center
Fri 01:29:22 PM 54.5500 -58.5167 46° Northeast 450 518 41,000  Level Gander Center
Fri 01:30:22 PM 54.6667 -58.3667 37° Northeast 460 529 41,000  Level Gander Center
Fri 01:31:22 PM 54.7500 -58.2167 46° Northeast 460 529 41,000  Level Gander Center
Fri 01:32:22 PM 54.8333 -58.0667 46° Northeast 460 529 41,000  Level Gander Center
Fri 01:33:22 PM 54.9333 -57.9000 44° Northeast 460 529 41,000  Level Gander Center
Fri 01:34:22 PM 55.0333 -57.7833 34° Northeast 460 529 41,000  Level Gander Center
Fri 01:35:22 PM 55.1333 -57.6000 46° Northeast 460 529 41,000  Level Gander Center
Fri 01:36:22 PM 55.2333 -57.4667 37° Northeast 460 529 41,000  Level Gander Center
Fri 01:37:22 PM 55.3167 -57.2833 51° Northeast 470 541 41,000  Level Gander Center
Fri 01:38:22 PM 55.4167 -57.1333 40° Northeast 470 541 41,000  Level Gander Center
Fri 01:39:22 PM 55.5000 -56.9833 66° East 470 541 41,000  Level Gander Center
Fri 01:39:25 PM 55.5167 -57.0167 66° East 468 539 41,000  Level ETMS Enhanced Traffic Management System
Fri 01:40:22 PM 55.5667 -56.7667 61° Northeast 480 552 41,000  Level Gander Center
Fri 01:41:22 PM 55.6167 -56.5500 68° East 480 552 41,000  Level Gander Center
Fri 01:42:22 PM 55.6667 -56.3333 68° East 480 552 41,000  Level Gander Center
Fri 01:43:22 PM 55.7167 -56.1167 68° East 480 552 41,000  Level Gander Center
Fri 01:44:22 PM 55.7667 -55.9000 68° East 480 552 41,000  Level Gander Center
Fri 01:47:00 PM 55.8400 -55.5928 67° East  Level FlightAware Approximate
Fri 01:54:00 PM 56.1754 -54.1275 67° East  Level FlightAware Approximate
Fri 01:55:00 PM 56.2219 -53.9161 68° East  Level FlightAware Approximate
Fri 01:56:00 PM 56.2680 -53.7042 69° East  Level FlightAware Approximate
Fri 01:57:00 PM 56.3138 -53.4917 69° East  Level FlightAware Approximate
Fri 01:58:00 PM 56.3591 -53.2788 69° East  Level FlightAware Approximate
Fri 01:59:00 PM 56.4042 -53.0654 69° East  Level FlightAware Approximate
Fri 02:00:00 PM 56.4488 -52.8515 69° East  Level FlightAware Approximate
Fri 02:01:00 PM 56.4931 -52.6370 69° East  Level FlightAware Approximate
Fri 02:02:00 PM 56.5371 -52.4221 70° East  Level FlightAware Approximate
Fri 02:03:00 PM 56.5806 -52.2066 70° East  Level FlightAware Approximate
Fri 02:04:00 PM 56.6238 -51.9907 70° East  Level FlightAware Approximate
Fri 02:05:00 PM 56.6666 -51.7743 70° East  Level FlightAware Approximate
Fri 02:06:00 PM 56.7091 -51.5574 70° East  Level FlightAware Approximate
Fri 02:07:00 PM 56.7511 -51.3400 70° East  Level FlightAware Approximate
Fri 02:08:00 PM 56.7928 -51.1221 71° East  Level FlightAware Approximate
Fri 02:09:00 PM 56.8341 -50.9037 71° East  Level FlightAware Approximate
Fri 02:10:00 PM 56.8750 -50.6849 71° East  Level FlightAware Approximate
Fri 02:10:07 PM 57.0000 -50.0000 65° Northeast 473 544 41,000  Level ETMS Enhanced Traffic Management System
Fri 02:11:00 PM 56.9155 -50.4656 71° East  Level FlightAware Approximate
Fri 02:12:00 PM 56.9557 -50.2458 71° East  Level FlightAware Approximate
Fri 02:13:00 PM 56.9954 -50.0255 72° East  Level FlightAware Approximate
Fri 02:14:00 PM 57.0468 -49.8138 65° Northeast  Level FlightAware Approximate
Fri 02:15:00 PM 57.0995 -49.6023 65° Northeast  Level FlightAware Approximate
Fri 02:16:00 PM 57.4303 -48.2260 67° East 473 544 41,000  Level FlightAware Transoceanic
Fri 02:17:00 PM 57.4823 -48.0013 67° East 473 544 41,000  Level FlightAware Transoceanic
Fri 02:18:00 PM 57.5339 -47.7760 67° East 473 544 41,000  Level FlightAware Transoceanic
Fri 02:19:00 PM 57.5851 -47.5501 67° East 473 544 41,000  Level FlightAware Transoceanic
Fri 02:20:00 PM 57.6359 -47.3236 67° East 473 544 41,000  Level FlightAware Transoceanic
Fri 02:21:00 PM 57.6863 -47.0964 68° East 473 544 41,000  Level FlightAware Transoceanic
Fri 02:22:00 PM 57.7363 -46.8685 68° East 473 544 41,000  Level FlightAware Transoceanic
Fri 02:23:00 PM 57.7859 -46.6401 68° East 473 544 41,000  Level FlightAware Transoceanic
Fri 02:24:00 PM 57.8350 -46.4110 68° East 473 544 41,000  Level FlightAware Transoceanic
Fri 02:25:00 PM 57.8838 -46.1813 68° East 473 544 41,000  Level FlightAware Transoceanic
Fri 02:26:00 PM 57.9321 -45.9510 69° East 473 544 41,000  Level FlightAware Transoceanic
Fri 02:27:00 PM 57.9800 -45.7201 69° East 473 544 41,000  Level FlightAware Transoceanic
Fri 02:28:00 PM 58.0275 -45.4885 69° East 473 544 41,000  Level FlightAware Transoceanic
Fri 02:29:00 PM 58.0746 -45.2563 69° East 473 544 41,000  Level FlightAware Transoceanic
Fri 02:30:00 PM 58.1213 -45.0236 69° East 473 544 41,000  Level FlightAware Transoceanic
Fri 02:31:00 PM 58.1675 -44.7902 70° East 473 544 41,000  Level FlightAware Transoceanic
Fri 02:32:00 PM 58.2133 -44.5562 70° East 473 544 41,000  Level FlightAware Transoceanic
Fri 02:33:00 PM 58.2587 -44.3216 70° East 473 544 41,000  Level FlightAware Transoceanic
Fri 02:34:00 PM 58.3036 -44.0864 70° East 473 544 41,000  Level FlightAware Transoceanic
Fri 02:35:00 PM 58.3481 -43.8506 70° East 473 544 41,000  Level FlightAware Transoceanic
Fri 02:36:00 PM 58.3922 -43.6142 71° East 473 544 41,000  Level FlightAware Transoceanic
Fri 02:37:00 PM 58.4359 -43.3773 71° East 473 544 41,000  Level FlightAware Transoceanic
Fri 02:38:00 PM 58.4791 -43.1397 71° East 473 544 41,000  Level FlightAware Transoceanic
Fri 02:39:00 PM 58.5218 -42.9016 71° East 473 544 41,000  Level FlightAware Transoceanic
Fri 02:40:00 PM 58.5642 -42.6629 71° East 473 544 41,000  Level FlightAware Transoceanic
Fri 02:41:00 PM 58.6060 -42.4236 72° East 473 544 41,000  Level FlightAware Transoceanic
Fri 02:42:00 PM 58.6475 -42.1837 72° East 473 544 41,000  Level FlightAware Transoceanic
Fri 02:43:00 PM 58.6884 -41.9433 72° East 473 544 41,000  Level FlightAware Transoceanic
Fri 02:44:00 PM 58.7290 -41.7023 72° East 473 544 41,000  Level FlightAware Transoceanic
Fri 02:45:00 PM 58.7691 -41.4608 72° East 473 544 41,000  Level FlightAware Transoceanic
Fri 02:46:00 PM 58.8087 -41.2187 73° East 473 544 41,000  Level FlightAware Transoceanic
Fri 02:47:00 PM 58.8479 -40.9760 73° East 473 544 41,000  Level FlightAware Transoceanic
Fri 02:48:00 PM 58.8866 -40.7328 73° East 473 544 41,000  Level FlightAware Transoceanic
Fri 02:49:00 PM 58.9249 -40.4891 73° East 473 544 41,000  Level FlightAware Transoceanic
Fri 02:50:00 PM 58.9627 -40.2448 73° East 473 544 41,000  Level FlightAware Transoceanic
Fri 02:50:39 PM 59.0000 -40.0000 86° East 500 575 41,000  Level ETMS Enhanced Traffic Management System
Fri 02:51:00 PM 58.9986 -40.0095 73° East  Level FlightAware Approximate
Fri 02:52:00 PM 59.0340 -39.7737 74° East  Level FlightAware Approximate
Fri 02:53:00 PM 59.0085 -39.7749 86° East  Level FlightAware Approximate
Fri 02:54:00 PM 59.0173 -39.5299 86° East  Level FlightAware Approximate
Fri 02:55:00 PM 59.0256 -39.2847 86° East  Level FlightAware Approximate
Fri 02:56:00 PM 59.0653 -37.8414 88° East 500 575 41,000  Level FlightAware Transoceanic
Fri 02:57:00 PM 59.0709 -37.5711 88° East 500 575 41,000  Level FlightAware Transoceanic
Fri 02:58:00 PM 59.0760 -37.3007 88° East 500 575 41,000  Level FlightAware Transoceanic
Fri 02:59:00 PM 59.0805 -37.0302 88° East 500 575 41,000  Level FlightAware Transoceanic
Fri 03:00:00 PM 59.0844 -36.7596 88° East 500 575 41,000  Level FlightAware Transoceanic
Fri 03:01:00 PM 59.0878 -36.4890 89° East 500 575 41,000  Level FlightAware Transoceanic
Fri 03:02:00 PM 59.0906 -36.2184 89° East 500 575 41,000  Level FlightAware Transoceanic
Fri 03:03:00 PM 59.0929 -35.9477 89° East 500 575 41,000  Level FlightAware Transoceanic
Fri 03:04:00 PM 59.0946 -35.6769 89° East 500 575 41,000  Level FlightAware Transoceanic
Fri 03:05:00 PM 59.0957 -35.4062 90° East 500 575 41,000  Level FlightAware Transoceanic
Fri 03:06:00 PM 59.0963 -35.1354 90° East 500 575 41,000  Level FlightAware Transoceanic
Fri 03:07:00 PM 59.0963 -34.8646 90° East 500 575 41,000  Level FlightAware Transoceanic
Fri 03:08:00 PM 59.0957 -34.5938 90° East 500 575 41,000  Level FlightAware Transoceanic
Fri 03:09:00 PM 59.0946 -34.3231 91° East 500 575 41,000  Level FlightAware Transoceanic
Fri 03:10:00 PM 59.0929 -34.0523 91° East 500 575 41,000  Level FlightAware Transoceanic
Fri 03:11:00 PM 59.0906 -33.7816 91° East 500 575 41,000  Level FlightAware Transoceanic
Fri 03:12:00 PM 59.0878 -33.5110 91° East 500 575 41,000  Level FlightAware Transoceanic
Fri 03:13:00 PM 59.0844 -33.2404 92° East 500 575 41,000  Level FlightAware Transoceanic
Fri 03:14:00 PM 59.0805 -32.9698 92° East 500 575 41,000  Level FlightAware Transoceanic
Fri 03:15:00 PM 59.0760 -32.6993 92° East 500 575 41,000  Level FlightAware Transoceanic
Fri 03:16:00 PM 59.0709 -32.4289 92° East 500 575 41,000  Level FlightAware Transoceanic
Fri 03:17:00 PM 59.0653 -32.1586 92° East 500 575 41,000  Level FlightAware Transoceanic
Fri 03:18:00 PM 59.0591 -31.8883 93° East 500 575 41,000  Level FlightAware Transoceanic
Fri 03:19:00 PM 59.0523 -31.6182 93° East 500 575 41,000  Level FlightAware Transoceanic
Fri 03:20:00 PM 59.0450 -31.3482 93° East 500 575 41,000  Level FlightAware Transoceanic
Fri 03:21:00 PM 59.0371 -31.0783 93° East 500 575 41,000  Level FlightAware Transoceanic
Fri 03:22:00 PM 59.0287 -30.8085 94° East 500 575 41,000  Level FlightAware Transoceanic
Fri 03:23:00 PM 59.0197 -30.5388 94° East 500 575 41,000  Level FlightAware Transoceanic
Fri 03:24:00 PM 59.0101 -30.2693 94° East 500 575 41,000  Level FlightAware Transoceanic
Fri 03:25:00 PM 59.0009 -30.0244 94° East  Level FlightAware Approximate
Fri 03:26:00 PM 58.9913 -29.7796 94° East  Level FlightAware Approximate
Fri 03:26:00 PM 59.0000 -30.0000 97° East 517 595 41,000  Level ETMS Enhanced Traffic Management System
Fri 03:27:00 PM 58.9883 -29.8048 97° East  Level FlightAware Approximate
Fri 03:28:00 PM 58.9733 -29.5611 97° East  Level FlightAware Approximate
Fri 03:29:00 PM 58.9579 -29.3177 97° East  Level FlightAware Approximate
Fri 03:30:00 PM 58.9419 -29.0744 97° East  Level FlightAware Approximate
Fri 03:31:00 PM 58.9256 -28.8314 97° East  Level FlightAware Approximate
Fri 03:32:00 PM 58.9087 -28.5887 98° East  Level FlightAware Approximate
Fri 03:33:00 PM 58.8289 -27.5182 99° East 517 595 41,000  Level FlightAware Transoceanic
Fri 03:34:00 PM 58.8070 -27.2440 99° East 517 595 41,000  Level FlightAware Transoceanic
Fri 03:35:00 PM 58.7845 -26.9702 99° East 517 595 41,000  Level FlightAware Transoceanic
Fri 03:36:00 PM 58.7614 -26.6967 99° East 517 595 41,000  Level FlightAware Transoceanic
Fri 03:37:00 PM 58.7377 -26.4236 100° East 517 595 41,000  Level FlightAware Transoceanic
Fri 03:38:00 PM 58.7134 -26.1509 100° East 517 595 41,000  Level FlightAware Transoceanic
Fri 03:39:00 PM 58.6886 -25.8786 100° East 517 595 41,000  Level FlightAware Transoceanic
Fri 03:40:00 PM 58.6632 -25.6067 100° East 517 595 41,000  Level FlightAware Transoceanic
Fri 03:41:00 PM 58.6372 -25.3351 101° East 517 595 41,000  Level FlightAware Transoceanic
Fri 03:42:00 PM 58.6107 -25.0640 101° East 517 595 41,000  Level FlightAware Transoceanic
Fri 03:43:00 PM 58.5836 -24.7933 101° East 517 595 41,000  Level FlightAware Transoceanic
Fri 03:44:00 PM 58.5559 -24.5230 101° East 517 595 41,000  Level FlightAware Transoceanic
Fri 03:45:00 PM 58.5277 -24.2532 101° East 517 595 41,000  Level FlightAware Transoceanic
Fri 03:46:00 PM 58.4989 -23.9838 102° East 517 595 41,000  Level FlightAware Transoceanic
Fri 03:47:00 PM 58.4695 -23.7148 102° East 517 595 41,000  Level FlightAware Transoceanic
Fri 03:48:00 PM 58.4395 -23.4463 102° East 517 595 41,000  Level FlightAware Transoceanic
Fri 03:49:00 PM 58.4090 -23.1782 102° East 517 595 41,000  Level FlightAware Transoceanic
Fri 03:50:00 PM 58.3780 -22.9106 103° East 517 595 41,000  Level FlightAware Transoceanic
Fri 03:51:00 PM 58.3464 -22.6435 103° East 517 595 41,000  Level FlightAware Transoceanic
Fri 03:52:00 PM 58.3142 -22.3769 103° East 517 595 41,000  Level FlightAware Transoceanic
Fri 03:53:00 PM 58.2815 -22.1108 103° East 517 595 41,000  Level FlightAware Transoceanic
Fri 03:54:00 PM 58.2482 -21.8451 104° East 517 595 41,000  Level FlightAware Transoceanic
Fri 03:55:00 PM 58.2144 -21.5800 104° East 517 595 41,000  Level FlightAware Transoceanic
Fri 03:56:00 PM 58.1800 -21.3153 104° East 517 595 41,000  Level FlightAware Transoceanic
Fri 03:57:00 PM 58.1451 -21.0512 104° East 517 595 41,000  Level FlightAware Transoceanic
Fri 03:58:00 PM 58.1096 -20.7876 104° East 517 595 41,000  Level FlightAware Transoceanic
Fri 03:59:00 PM 58.0736 -20.5245 105° East 517 595 41,000  Level FlightAware Transoceanic
Fri 04:00:00 PM 58.0371 -20.2620 105° East 517 595 41,000 48 Level FlightAware Transoceanic
Fri 04:01:00 PM 58.0045 -20.0313 105° East  Level FlightAware Approximate
Fri 04:02:00 PM 57.9715 -19.8010 105° East  Level FlightAware Approximate
Fri 04:03:00 PM 57.9674 -19.8375 111° Southeast  Level FlightAware Approximate
Fri 04:04:00 PM 57.9222 -19.6150 111° Southeast  Level FlightAware Approximate
Fri 04:05:00 PM 57.8767 -19.3930 111° Southeast  Level FlightAware Approximate
Fri 04:06:00 PM 57.8307 -19.1715 111° Southeast  Level FlightAware Approximate
Fri 04:07:00 PM 57.7844 -18.9506 111° Southeast  Level FlightAware Approximate
Fri 04:08:00 PM 57.7378 -18.7303 112° Southeast  Level FlightAware Approximate
Fri 04:09:00 PM 57.6907 -18.5106 112° Southeast  Level FlightAware Approximate
Fri 04:10:00 PM 57.6432 -18.2914 112° Southeast  Level FlightAware Approximate
Fri 04:11:00 PM 57.5954 -18.0728 112° Southeast  Level FlightAware Approximate
Fri 04:12:00 PM 57.5472 -17.8548 112° Southeast  Level FlightAware Approximate
Fri 04:13:00 PM 57.4986 -17.6374 113° Southeast  Level FlightAware Approximate
Fri 04:14:00 PM 57.4497 -17.4206 113° Southeast  Level FlightAware Approximate
Fri 04:15:00 PM 57.4003 -17.2043 113° Southeast  Level FlightAware Approximate
Fri 04:16:00 PM 57.3506 -16.9886 113° Southeast  Level FlightAware Approximate
Fri 04:17:00 PM 57.3006 -16.7735 113° Southeast  Level FlightAware Approximate
Fri 04:18:00 PM 57.2501 -16.5590 113° Southeast  Level FlightAware Approximate
Fri 04:19:00 PM 57.1993 -16.3451 114° Southeast  Level FlightAware Approximate
Fri 04:20:00 PM 57.1482 -16.1317 114° Southeast  Level FlightAware Approximate
Fri 04:21:00 PM 57.0967 -15.9190 114° Southeast  Level FlightAware Approximate
Fri 04:22:00 PM 57.0448 -15.7068 114° Southeast  Level FlightAware Approximate
Fri 04:23:00 PM 56.9926 -15.4952 114° Southeast  Level FlightAware Approximate
Fri 04:24:00 PM 56.9400 -15.2843 114° Southeast  Level FlightAware Approximate
Fri 04:25:00 PM 56.8870 -15.0739 115° Southeast  Level FlightAware Approximate
Fri 04:26:00 PM 56.8337 -14.8641 115° Southeast  Level FlightAware Approximate
Fri 04:27:00 PM 56.7801 -14.6550 115° Southeast  Level FlightAware Approximate
Fri 04:28:00 PM 56.7261 -14.4464 115° Southeast  Level FlightAware Approximate
Fri 04:29:00 PM 56.6717 -14.2384 115° Southeast  Level FlightAware Approximate
Fri 04:30:00 PM 56.6171 -14.0310 116° Southeast  Level FlightAware Approximate
Fri 04:31:00 PM 56.5620 -13.8243 116° Southeast  Level FlightAware Approximate
Fri 04:32:00 PM 56.5066 -13.6181 116° Southeast  Level FlightAware Approximate
Fri 04:33:00 PM 56.4509 -13.4125 116° Southeast  Level FlightAware Approximate
Fri 04:34:00 PM 56.3949 -13.2076 116° Southeast  Level FlightAware Approximate
Fri 04:35:00 PM 56.3385 -13.0032 116° Southeast  Level FlightAware Approximate
Fri 04:36:00 PM 56.2818 -12.7995 117° Southeast  Level FlightAware Approximate
Fri 04:37:00 PM 56.2247 -12.5963 117° Southeast  Level FlightAware Approximate
Fri 04:38:00 PM 56.1673 -12.3938 117° Southeast  Level FlightAware Approximate
Fri 04:39:00 PM 56.1096 -12.1918 117° Southeast  Level FlightAware Approximate
Fri 04:40:00 PM 56.0515 -11.9905 117° Southeast  Level FlightAware Approximate
Fri 04:41:00 PM 55.9932 -11.7898 117° Southeast  Level FlightAware Approximate
Fri 04:42:00 PM 55.9345 -11.5897 118° Southeast  Level FlightAware Approximate
Fri 04:43:00 PM 55.8754 -11.3902 118° Southeast  Level FlightAware Approximate
Fri 04:44:00 PM 55.8161 -11.1912 118° Southeast  Level FlightAware Approximate
Fri 04:45:00 PM 55.7564 -10.9930 118° Southeast  Level FlightAware Approximate
Fri 04:46:00 PM 55.6964 -10.7953 118° Southeast  Level FlightAware Approximate
Fri 04:47:00 PM 55.6361 -10.5982 118° Southeast  Level FlightAware Approximate
Fri 04:48:00 PM 55.5755 -10.4017 119° Southeast  Level FlightAware Approximate
Fri 04:49:00 PM 55.5146 -10.2059 119° Southeast  Level FlightAware Approximate
Fri 04:50:00 PM 55.4533 -10.0106 119° Southeast  Level FlightAware Approximate
Fri 04:51:00 PM 55.3923 -9.8154 119° Southeast  Level FlightAware Approximate
Fri 04:51:06 PM 55.2591 -8.9810 119° Southeast 470 541 43,500  Level FlightAware UK
Fri 04:51:24 PM 55.2412 -8.9179 116° Southeast 468 539 43,500  Level FlightAware UK
Fri 04:51:42 PM 55.2234 -8.8551 116° Southeast 470 541 43,500  Level FlightAware UK
Fri 04:52:00 PM 55.2057 -8.7924 116° Southeast 464 534 43,500  Level FlightAware UK
Fri 04:52:18 PM 55.1881 -8.7300 116° Southeast 462 532 43,500  Level FlightAware UK
Fri 04:52:36 PM 55.1700 -8.6688 117° Southeast 464 534 43,500  Level FlightAware UK
Fri 04:52:54 PM 55.1521 -8.6067 117° Southeast 464 534 43,500  Level FlightAware UK
Fri 04:53:12 PM 55.1346 -8.5451 116° Southeast 462 532 43,500  Level FlightAware UK
Fri 04:53:30 PM 55.1168 -8.4833 117° Southeast 464 534 43,500  Level FlightAware UK
Fri 04:53:48 PM 55.0990 -8.4216 117° Southeast 466 536 43,500  Level FlightAware UK
Fri 04:54:06 PM 55.0811 -8.3600 117° Southeast 468 539 43,500  Level FlightAware UK
Fri 04:54:24 PM 55.0632 -8.2982 117° Southeast 466 536 43,500  Level FlightAware UK
Fri 04:54:42 PM 55.0454 -8.2364 117° Southeast 468 539 43,500  Level FlightAware UK
Fri 04:55:00 PM 55.0275 -8.1747 117° Southeast 464 534 43,500  Level FlightAware UK
Fri 04:55:18 PM 55.0096 -8.1132 117° Southeast 462 532 43,500  Level FlightAware UK
Fri 04:55:36 PM 54.9915 -8.0517 117° Southeast 462 532 43,500  Level FlightAware UK
Fri 04:55:54 PM 54.9735 -7.9904 117° Southeast 462 532 43,500  Level FlightAware UK
Fri 04:56:12 PM 54.9555 -7.9291 117° Southeast 462 532 43,500  Level FlightAware UK
Fri 04:56:30 PM 54.9375 -7.8678 117° Southeast 462 532 43,500  Level FlightAware UK
Fri 04:56:48 PM 54.9193 -7.8066 117° Southeast 464 534 43,500  Level FlightAware UK
Fri 04:57:06 PM 54.9012 -7.7452 117° Southeast 464 534 43,500  Level FlightAware UK
Fri 04:57:24 PM 54.8831 -7.6836 117° Southeast 466 536 43,500  Level FlightAware UK
Fri 04:57:42 PM 54.8647 -7.6221 117° Southeast 466 536 43,500  Level FlightAware UK
Fri 04:58:00 PM 54.8462 -7.5606 118° Southeast 466 536 43,500  Level FlightAware UK
Fri 04:58:18 PM 54.8279 -7.4992 117° Southeast 464 534 43,500  Level FlightAware UK
Fri 04:58:36 PM 54.8094 -7.4379 118° Southeast 460 529 43,500  Level FlightAware UK
Fri 04:58:54 PM 54.7910 -7.3768 118° Southeast 464 534 43,500  Level FlightAware UK
Fri 04:59:12 PM 54.7724 -7.3150 118° Southeast 464 534 43,500  Level FlightAware UK
Fri 04:59:30 PM 54.7540 -7.2540 118° Southeast 462 532 43,500  Level FlightAware UK
Fri 04:59:48 PM 54.7355 -7.1929 118° Southeast 462 532 43,500  Level FlightAware UK
Fri 05:00:06 PM 54.7169 -7.1319 118° Southeast 466 536 43,500  Level FlightAware UK
Fri 05:00:24 PM 54.6983 -7.0710 118° Southeast 468 539 43,500  Level FlightAware UK
Fri 05:00:42 PM 54.6796 -7.0100 118° Southeast 468 539 43,500  Level FlightAware UK
Fri 05:01:00 PM 54.6609 -6.9491 118° Southeast 466 536 43,500  Level FlightAware UK
Fri 05:01:18 PM 54.6423 -6.8884 118° Southeast 468 539 43,500  Level FlightAware UK
Fri 05:01:36 PM 54.6236 -6.8279 118° Southeast 466 536 43,500  Level FlightAware UK
Fri 05:01:54 PM 54.6050 -6.7677 118° Southeast 466 536 43,500  Level FlightAware UK
Fri 05:02:12 PM 54.5868 -6.7085 118° Southeast 464 534 43,500  Level FlightAware UK
Fri 05:02:30 PM 54.5682 -6.6486 118° Southeast 462 532 43,500  Level FlightAware UK
Fri 05:02:48 PM 54.5497 -6.5893 118° Southeast 462 532 43,500  Level FlightAware UK
Fri 05:03:06 PM 54.5311 -6.5300 118° Southeast 462 532 43,500  Level FlightAware UK
Fri 05:03:24 PM 54.5125 -6.4705 118° Southeast 460 529 43,500  Level FlightAware UK
Fri 05:03:42 PM 54.4938 -6.4110 118° Southeast 460 529 43,500  Level FlightAware UK
Fri 05:04:00 PM 54.4750 -6.3514 118° Southeast 460 529 43,500  Level FlightAware UK
Fri 05:04:18 PM 54.4563 -6.2920 118° Southeast 462 532 43,500  Level FlightAware UK
Fri 05:04:36 PM 54.4375 -6.2325 119° Southeast 460 529 43,500  Level FlightAware UK
Fri 05:04:54 PM 54.4187 -6.1729 118° Southeast 462 532 43,500  Level FlightAware UK
Fri 05:05:12 PM 54.3997 -6.1133 119° Southeast 462 532 43,500  Level FlightAware UK
Fri 05:05:30 PM 54.3804 -6.0529 119° Southeast 462 532 43,500  Level FlightAware UK
Fri 05:05:48 PM 54.3613 -5.9931 119° Southeast 464 534 43,500  Level FlightAware UK
Fri 05:06:06 PM 54.3422 -5.9333 119° Southeast 466 536 43,500  Level FlightAware UK
Fri 05:06:24 PM 54.3230 -5.8735 119° Southeast 466 536 43,500  Level FlightAware UK
Fri 05:06:42 PM 54.3039 -5.8141 119° Southeast 462 532 43,500  Level FlightAware UK
Fri 05:07:00 PM 54.2847 -5.7548 119° Southeast 460 529 43,500  Level FlightAware UK
Fri 05:07:18 PM 54.2656 -5.6956 119° Southeast 458 527 43,500  Level FlightAware UK
Fri 05:07:36 PM 54.2465 -5.6364 119° Southeast 460 529 43,500  Level FlightAware UK
Fri 05:07:54 PM 54.2273 -5.5772 119° Southeast 462 532 43,500  Level FlightAware UK
Fri 05:08:12 PM 54.2079 -5.5179 119° Southeast 462 532 43,500  Level FlightAware UK
Fri 05:08:30 PM 54.1884 -5.4584 119° Southeast 462 532 43,500  Level FlightAware UK
Fri 05:08:48 PM 54.1689 -5.3989 119° Southeast 464 534 43,500  Level FlightAware UK
Fri 05:09:06 PM 54.1493 -5.3393 119° Southeast 464 534 43,500  Level FlightAware UK
Fri 05:09:24 PM 54.1296 -5.2791 119° Southeast 462 532 43,500  Level FlightAware UK
Fri 05:09:42 PM 54.1100 -5.2196 119° Southeast 464 534 43,500  Level FlightAware UK
Fri 05:10:00 PM 54.0904 -5.1601 119° Southeast 462 532 43,500  Level FlightAware UK
Fri 05:10:18 PM 54.0707 -5.1006 119° Southeast 464 534 43,500  Level FlightAware UK
Fri 05:10:36 PM 54.0509 -5.0415 120° Southeast 464 534 43,500  Level FlightAware UK
Fri 05:10:54 PM 54.0312 -4.9822 120° Southeast 464 534 43,500  Level FlightAware UK
Fri 05:11:12 PM 54.0114 -4.9230 120° Southeast 462 532 43,500  Level FlightAware UK
Fri 05:11:30 PM 53.9915 -4.8637 120° Southeast 462 532 43,500  Level FlightAware UK
Fri 05:11:48 PM 53.9716 -4.8042 120° Southeast 464 534 43,500  Level FlightAware UK
Fri 05:12:06 PM 53.9516 -4.7449 120° Southeast 462 532 43,500  Level FlightAware UK
Fri 05:12:25 PM 53.9313 -4.6848 120° Southeast 460 529 43,500  Level FlightAware UK
Fri 05:12:42 PM 53.9115 -4.6257 120° Southeast 460 529 43,500  Level FlightAware UK
Fri 05:13:06 PM 53.8845 -4.5463 120° Southeast 462 532 43,500  Level FlightAware UK
Fri 05:13:25 PM 53.8640 -4.4859 120° Southeast 460 529 43,500  Level FlightAware UK
Fri 05:13:43 PM 53.8436 -4.4262 120° Southeast 464 534 43,500  Level FlightAware UK
Fri 05:14:01 PM 53.8232 -4.3665 120° Southeast 468 539 43,500  Level FlightAware UK
Fri 05:14:19 PM 53.8028 -4.3068 120° Southeast 466 536 43,500  Level FlightAware UK
Fri 05:14:37 PM 53.7824 -4.2474 120° Southeast 462 532 43,500  Level FlightAware UK
Fri 05:14:55 PM 53.7615 -4.1886 121° Southeast 460 529 43,500  Level FlightAware UK
Fri 05:15:13 PM 53.7383 -4.1331 125° Southeast 460 529 43,500  Level FlightAware UK
Fri 05:15:31 PM 53.7142 -4.0774 126° Southeast 462 532 43,500  Level FlightAware UK
Fri 05:15:49 PM 53.6891 -4.0247 129° Southeast 462 532 43,500  Level FlightAware UK
Fri 05:16:07 PM 53.6631 -3.9725 130° Southeast 462 532 43,500  Level FlightAware UK
Fri 05:16:25 PM 53.6370 -3.9194 130° Southeast 464 534 43,500  Level FlightAware UK
Fri 05:16:49 PM 53.6027 -3.8499 130° Southeast 464 534 43,500  Level FlightAware UK
Fri 05:17:07 PM 53.5765 -3.7969 130° Southeast 466 536 43,500  Level FlightAware UK
Fri 05:17:25 PM 53.5505 -3.7445 130° Southeast 464 534 43,500  Level FlightAware UK
Fri 05:17:43 PM 53.5246 -3.6922 130° Southeast 468 539 43,500  Level FlightAware UK
Fri 05:18:01 PM 53.4987 -3.6402 130° Southeast 468 539 43,500  Level FlightAware UK
Fri 05:18:19 PM 53.4725 -3.5877 130° Southeast 468 539 43,500  Level FlightAware UK
Fri 05:18:37 PM 53.4467 -3.5361 130° Southeast 470 541 43,500  Level FlightAware UK
Fri 05:18:55 PM 53.4209 -3.4848 130° Southeast 472 543 43,500  Level FlightAware UK
Fri 05:19:13 PM 53.3954 -3.4339 130° Southeast 468 539 43,500  Level FlightAware UK
Fri 05:19:31 PM 53.3699 -3.3835 130° Southeast 468 539 43,500  Level FlightAware UK
Fri 05:19:49 PM 53.3444 -3.3329 130° Southeast 464 534 43,500  Level FlightAware UK
Fri 05:20:07 PM 53.3189 -3.2825 130° Southeast 464 534 43,500  Level FlightAware UK
Fri 05:20:31 PM 53.2851 -3.2155 130° Southeast 464 534 43,500  Level FlightAware UK
Fri 05:20:49 PM 53.2594 -3.1646 130° Southeast 462 532 43,500  Level FlightAware UK
Fri 05:21:07 PM 53.2338 -3.1143 130° Southeast 464 534 43,500  Level FlightAware UK
Fri 05:21:25 PM 53.2084 -3.0647 131° Southeast 462 532 43,500 -333 Level FlightAware UK
Fri 05:21:43 PM 53.1824 -3.0139 130° Southeast 462 532 43,300 -1,500 Descending FlightAware UK
Fri 05:22:01 PM 53.1562 -2.9624 130° Southeast 468 539 42,600 -2,333 Descending FlightAware UK
Fri 05:22:19 PM 53.1294 -2.9102 131° Southeast 472 543 41,900 -2,500 Descending FlightAware UK
Fri 05:22:37 PM 53.1027 -2.8581 130° Southeast 480 552 41,100 -2,667 Descending FlightAware UK
Fri 05:22:55 PM 53.0760 -2.8060 131° Southeast 486 559 40,300 -2,500 Descending FlightAware UK
Fri 05:23:13 PM 53.0493 -2.7543 131° Southeast 478 550 39,600 -2,500 Descending FlightAware UK
Fri 05:23:31 PM 53.0228 -2.7027 131° Southeast 476 548 38,800 -2,500 Descending FlightAware UK
Fri 05:23:49 PM 52.9962 -2.6514 131° Southeast 476 548 38,100 -2,500 Descending FlightAware UK
Fri 05:24:07 PM 52.9698 -2.6005 131° Southeast 470 541 37,300 -2,595 Descending FlightAware UK
Fri 05:24:26 PM 52.9431 -2.5493 131° Southeast 462 532 36,500 -2,500 Descending FlightAware UK
Fri 05:24:43 PM 52.9172 -2.4996 131° Southeast 456 525 35,800 -2,571 Descending FlightAware UK
Fri 05:25:01 PM 52.8911 -2.4490 130° Southeast 464 534 35,000 -2,270 Descending FlightAware UK
Fri 05:25:20 PM 52.8678 -2.3937 125° Southeast 462 532 34,400 -2,432 Descending FlightAware UK
Fri 05:25:38 PM 52.8440 -2.3418 127° Southeast 444 511 33,500 -4,000 Descending FlightAware UK
Fri 05:25:56 PM 52.8197 -2.2885 127° Southeast 456 525 32,000 -4,143 Descending FlightAware UK
Fri 05:26:20 PM 52.7869 -2.2164 127° Southeast 460 529 30,600 -3,571 Descending FlightAware UK
Fri 05:26:38 PM 52.7623 -2.1628 127° Southeast 464 534 29,500 -3,500 Descending FlightAware UK
Fri 05:26:56 PM 52.7378 -2.1093 127° Southeast 466 536 28,500 -3,167 Descending FlightAware UK
Fri 05:27:14 PM 52.7135 -2.0556 127° Southeast 456 525 27,600 -2,833 Descending FlightAware UK
Fri 05:27:32 PM 52.6902 -2.0042 127° Southeast 454 522 26,800 -2,833 Descending FlightAware UK
Fri 05:27:50 PM 52.6663 -1.9527 127° Southeast 444 511 25,900 -3,167 Descending FlightAware UK
Fri 05:28:08 PM 52.6430 -1.9024 127° Southeast 442 509 24,900 -3,000 Descending FlightAware UK
Fri 05:28:26 PM 52.6202 -1.8525 127° Southeast 434 499 24,100 -2,833 Descending FlightAware UK
Fri 05:28:44 PM 52.5981 -1.8038 127° Southeast 430 495 23,200 -3,000 Descending FlightAware UK
Fri 05:29:02 PM 52.5757 -1.7545 127° Southeast 426 490 22,300 -2,167 Descending FlightAware UK
Fri 05:29:20 PM 52.5542 -1.7069 127° Southeast 410 472 21,900 -1,500 Descending FlightAware UK
Fri 05:29:38 PM 52.5338 -1.6618 127° Southeast 400 460 21,400 -1,833 Descending FlightAware UK
Fri 05:29:56 PM 52.5137 -1.6174 127° Southeast 392 451 20,800 -2,333 Descending FlightAware UK
Fri 05:30:14 PM 52.4943 -1.5733 126° Southeast 384 442 20,000 -2,833 Descending FlightAware UK
Fri 05:30:32 PM 52.4752 -1.5292 125° Southeast 382 440 19,100 -2,667 Descending FlightAware UK
Fri 05:30:50 PM 52.4558 -1.4853 126° Southeast 380 437 18,400 -2,167 Descending FlightAware UK
Fri 05:31:08 PM 52.4369 -1.4431 126° Southeast 374 430 17,800 -1,500 Descending FlightAware UK
Fri 05:31:26 PM 52.4185 -1.4019 126° Southeast 362 417 17,500 -500 Descending FlightAware UK
Fri 05:31:44 PM 52.4003 -1.3612 126° Southeast 360 414 17,500  Level FlightAware UK
Fri 05:32:02 PM 52.3818 -1.3202 126° Southeast 364 419 17,500  Level FlightAware UK
Fri 05:32:20 PM 52.3630 -1.2784 126° Southeast 368 423 17,500  Level FlightAware UK
Fri 05:32:38 PM 52.3441 -1.2370 127° Southeast 372 428 17,500  Level FlightAware UK
Fri 05:32:56 PM 52.3250 -1.1955 127° Southeast 372 428 17,500  Level FlightAware UK
Fri 05:33:14 PM 52.3058 -1.1539 127° Southeast 372 428 17,500  Level FlightAware UK
Fri 05:33:33 PM 52.2863 -1.1118 127° Southeast 372 428 17,500 -649 Level FlightAware UK
Fri 05:33:51 PM 52.2671 -1.0701 127° Southeast 372 428 17,100 -1,200 Descending FlightAware UK
Fri 05:34:08 PM 52.2482 -1.0290 127° Southeast 366 421 16,800 -1,000 Descending FlightAware UK
Fri 05:34:27 PM 52.2292 -0.9875 127° Southeast 362 417 16,500 -973 Descending FlightAware UK
Fri 05:34:45 PM 52.2105 -0.9473 127° Southeast 364 419 16,200 -833 Descending FlightAware UK
Fri 05:35:03 PM 52.1915 -0.9070 128° Southeast 360 414 16,000 -1,000 Descending FlightAware UK
Fri 05:35:21 PM 52.1722 -0.8663 128° Southeast 362 417 15,600 -1,167 Descending FlightAware UK
Fri 05:35:39 PM 52.1530 -0.8260 128° Southeast 360 414 15,300 -1,500 Descending FlightAware UK
Fri 05:35:57 PM 52.1340 -0.7862 128° Southeast 354 407 14,700 -1,333 Descending FlightAware UK
Fri 05:36:15 PM 52.1162 -0.7491 128° Southeast 334 384 14,500 -667 Descending FlightAware UK
Fri 05:36:33 PM 52.0993 -0.7133 127° Southeast 306 352 14,300 -833 Descending FlightAware UK
Fri 05:36:51 PM 52.0842 -0.6797 126° Southeast 286 329 14,000 -1,500 Descending FlightAware UK
Fri 05:37:09 PM 52.0767 -0.6397 107° East 280 322 13,400 -2,000 Descending FlightAware UK
Fri 05:37:27 PM 52.0690 -0.6018 108° East 276 318 12,800 -2,000 Descending FlightAware UK
Fri 05:37:45 PM 52.0619 -0.5640 107° East 272 313 12,200 -2,167 Descending FlightAware UK
Fri 05:38:03 PM 52.0550 -0.5262 107° East 268 308 11,500 -2,333 Descending FlightAware UK
Fri 05:38:21 PM 52.0593 -0.4882 79° East 268 308 10,800 -2,167 Descending FlightAware UK
Fri 05:38:39 PM 52.0756 -0.4612 46° Northeast 262 302 10,200 -2,167 Descending FlightAware UK
Fri 05:38:57 PM 52.0978 -0.4549 10° North 260 299 9,500 -2,333 Descending FlightAware UK
Fri 05:39:15 PM 52.1156 -0.4716 330° Northwest 260 299 8,800 -1,833 Descending FlightAware UK
Fri 05:39:33 PM 52.1213 -0.5009 287° West 258 297 8,400 -1,500 Descending FlightAware UK
Fri 05:39:51 PM 52.1127 -0.5280 243° Southwest 256 295 7,900 -1,500 Descending FlightAware UK
Fri 05:40:09 PM 52.0947 -0.5374 198° South 254 292 7,500 -1,500 Descending FlightAware UK
Fri 05:40:27 PM 52.0756 -0.5245 157° South 252 290 7,000 -1,500 Descending FlightAware UK
Fri 05:40:45 PM 52.0636 -0.4947 123° Southeast 250 288 6,600 -1,333 Descending FlightAware UK
Fri 05:41:03 PM 52.0534 -0.4630 118° Southeast 250 288 6,200 -1,333 Descending FlightAware UK
Fri 05:41:21 PM 52.0436 -0.4308 116° Southeast 246 283 5,800 -1,333 Descending FlightAware UK
Fri 05:41:39 PM 52.0340 -0.3992 116° Southeast 244 281 5,400 -1,500 Descending FlightAware UK
Fri 05:41:57 PM 52.0246 -0.3682 116° Southeast 242 278 4,900 -1,500 Descending FlightAware UK
Fri 05:42:15 PM 52.0150 -0.3371 117° Southeast 242 278 4,500 -833 Descending FlightAware UK
Fri 05:42:33 PM 52.0097 -0.3035 104° East 242 278 4,400 -500 Descending FlightAware UK
Fri 05:42:51 PM 52.0055 -0.2678 101° East 242 278 4,200 -833 Descending FlightAware UK
Fri 05:43:09 PM 52.0021 -0.2327 99° East 242 278 3,900 -833 Descending FlightAware UK
Fri 05:43:27 PM 51.9986 -0.1979 99° East 238 274 3,700 -667 Descending FlightAware UK
Fri 05:43:45 PM 51.9949 -0.1631 100° East 238 274 3,500 -667 Descending FlightAware UK
Fri 05:44:03 PM 51.9913 -0.1285 100° East 236 272 3,300 -167 Descending FlightAware UK
Fri 05:44:21 PM 51.9876 -0.0937 100° East 240 276 3,400 -333 Climbing FlightAware UK
Fri 05:44:39 PM 51.9841 -0.0598 100° East 232 267 3,100 -1,000 Descending FlightAware UK
Fri 05:44:57 PM 51.9713 -0.0361 131° Southeast 226 260 2,800 -1,000 Descending FlightAware UK
Fri 05:45:15 PM 51.9538 -0.0333 174° South 218 251 2,500 -833 Descending FlightAware UK
Fri 05:45:33 PM 51.9400 -0.0478 213° Southwest 206 237 2,300 -833 Descending FlightAware UK
Fri 05:45:51 PM 51.9302 -0.0656 228° Southwest 192 221 2,000 -1,167 Descending FlightAware UK
Fri 05:46:09 PM 51.9238 -0.0856 242° Southwest 190 219 1,600 -1,000 Descending FlightAware UK
Fri 05:46:27 PM 51.9188 -0.1063 249° West 186 214 1,400 -333 Descending FlightAware UK
Fri 05:46:45 PM 51.9153 -0.1274 255° West 186 214 1,400  Level FlightAware UK
Fri 05:47:03 PM 51.9119 -0.1479 255° West 186 214 1,400 -333 Level FlightAware UK
Fri 05:47:21 PM 51.9087 -0.1690 256° West 184 212 1,200 -667 Descending FlightAware UK
Fri 05:47:39 PM 51.9056 -0.1888 256° West 172 198 1,000 -667 Descending FlightAware UK
Fri 05:47:57 PM 51.9027 -0.2065 255° West 168 193 800 -667 Descending FlightAware UK
Fri 05:48:15 PM 51.8996 -0.2244 255° West 164 189 600 -667 Descending FlightAware UK
Fri 05:48:33 PM 51.8966 -0.2419 254° West 164 189 400 -833 Descending FlightAware UK
Fri 05:48:51 PM 51.8936 -0.2593 254° West 162 186 100 -1,000 Descending FlightAware UK

Login

Don't have an account? Register now (free) for customized features, flight alerts, and more!